createdAt,value
2022-12-27T00:01:17.963Z,97884.84
2022-12-27T00:03:44.618Z,97902.22
2022-12-27T00:06:19.514Z,97915.63
2022-12-27T00:08:46.134Z,97881.59
2022-12-27T00:11:14.632Z,97874.28
2022-12-27T00:13:41.282Z,97967.31
2022-12-27T00:16:09.976Z,98027.56
2022-12-27T00:18:36.850Z,98042.09
2022-12-27T00:21:03.673Z,97894.50
2022-12-27T00:23:33.343Z,97915.56
2022-12-27T00:26:03.988Z,97881.72
2022-12-27T00:28:31.633Z,97942.38
2022-12-27T00:30:58.419Z,97927.69
2022-12-27T00:33:25.224Z,97848.13
2022-12-27T00:35:51.749Z,97851.88
2022-12-27T00:38:18.296Z,97887.78
2022-12-27T00:40:47.036Z,97875.59
2022-12-27T00:43:13.638Z,97950.84
2022-12-27T00:45:40.188Z,98093.03
2022-12-27T00:48:06.820Z,97882.41
2022-12-27T00:50:33.377Z,97947.47
2022-12-27T00:52:59.945Z,97896.03
2022-12-27T00:55:26.580Z,98110.47
2022-12-27T00:57:53.133Z,98064.13
2022-12-27T01:00:19.824Z,97805.56
2022-12-27T01:03:07.993Z,98158.03
2022-12-27T01:05:37.422Z,98078.53
2022-12-27T01:08:04.663Z,97923.94
2022-12-27T01:10:31.434Z,98046.13
2022-12-27T01:12:58.101Z,98082.19
2022-12-27T01:15:24.649Z,98020.59
2022-12-27T01:17:54.234Z,98174.72
2022-12-27T01:20:21.005Z,98170.66
2022-12-27T01:22:47.660Z,97993.47
2022-12-27T01:25:14.208Z,97978.28
2022-12-27T01:27:40.747Z,98102.22
2022-12-27T01:30:07.841Z,97985.91
2022-12-27T01:32:34.605Z,98118.31
2022-12-27T01:35:01.142Z,97979.94
2022-12-27T01:37:28.820Z,97949.75
2022-12-27T01:39:55.904Z,98130.25
2022-12-27T01:42:41.178Z,98136.09
2022-12-27T01:45:21.535Z,97987.94
2022-12-27T01:47:54.984Z,98216.47
2022-12-27T01:50:37.035Z,98148.75
2022-12-27T01:53:28.298Z,98040.09
2022-12-27T01:56:33.518Z,98223.25
2022-12-27T01:59:02.292Z,98048.25
2022-12-27T02:01:33.899Z,98007.03
2022-12-27T02:04:12.640Z,98239.38
2022-12-27T02:06:39.208Z,98144.97
2022-12-27T02:09:27.566Z,98107.78
2022-12-27T02:11:56.978Z,98049.84
2022-12-27T02:14:46.944Z,98102.66
2022-12-27T02:17:17.834Z,98159.31
2022-12-27T02:19:55.290Z,98061.16
2022-12-27T02:22:59.460Z,98281.00
2022-12-27T02:25:38.075Z,98298.84
2022-12-27T02:28:19.773Z,98297.06
2022-12-27T02:30:47.297Z,98207.06
2022-12-27T02:33:22.048Z,98124.88
2022-12-27T02:35:55.347Z,98120.75
2022-12-27T02:38:27.623Z,98154.69
2022-12-27T02:41:13.297Z,98315.81
2022-12-27T02:43:58.581Z,98199.72
2022-12-27T02:46:46.787Z,98335.31
2022-12-27T02:49:57.203Z,98325.13
2022-12-27T02:52:54.867Z,98334.47
2022-12-27T02:55:27.333Z,98337.81
2022-12-27T02:58:13.866Z,98342.13
2022-12-27T03:01:50.921Z,98355.72
2022-12-27T03:04:49.577Z,98198.28
2022-12-27T03:07:34.077Z,98344.59
2022-12-27T03:10:22.473Z,98347.16
2022-12-27T03:13:31.613Z,98358.19
2022-12-27T03:16:14.313Z,98198.25
2022-12-27T03:18:52.940Z,98365.84
2022-12-27T03:21:47.371Z,98365.84
2022-12-27T03:24:33.178Z,98277.94
2022-12-27T03:26:59.795Z,98310.09
2022-12-27T03:29:44.957Z,98258.44
2022-12-27T03:32:30.260Z,98098.13
2022-12-27T03:35:03.436Z,98201.66
2022-12-27T03:37:54.439Z,98175.25
2022-12-27T03:40:39.738Z,98421.13
2022-12-27T03:43:14.084Z,98278.34
2022-12-27T03:46:15.193Z,98427.94
2022-12-27T03:48:54.002Z,98422.78
2022-12-27T03:51:21.363Z,98362.94
2022-12-27T03:53:47.992Z,98213.41
2022-12-27T03:56:14.494Z,98253.47
2022-12-27T03:58:41.004Z,98293.47
2022-12-27T04:01:07.598Z,98361.69
2022-12-27T04:03:34.234Z,98369.53
2022-12-27T04:06:00.864Z,98193.91
2022-12-27T04:08:45.979Z,98361.47
2022-12-27T04:11:30.937Z,98243.38
2022-12-27T04:14:16.160Z,98252.00
2022-12-27T04:17:01.414Z,98451.63
2022-12-27T04:19:46.427Z,98272.63
2022-12-27T04:22:31.679Z,98368.28
2022-12-27T04:25:16.622Z,98364.63
2022-12-27T04:28:01.833Z,98457.34
2022-12-27T04:30:47.174Z,98337.56
2022-12-27T04:33:32.026Z,98295.84
2022-12-27T04:36:04.341Z,98362.91
2022-12-27T04:38:32.659Z,98395.63
2022-12-27T04:41:17.501Z,98394.75
2022-12-27T04:44:03.070Z,98357.81
2022-12-27T04:46:48.307Z,98305.56
2022-12-27T04:49:40.705Z,98424.78
2022-12-27T04:52:44.236Z,98357.38
2022-12-27T04:55:17.305Z,98502.66
2022-12-27T04:57:43.840Z,98270.28
2022-12-27T05:00:29.776Z,98235.97
2022-12-27T05:02:56.679Z,98197.44
2022-12-27T05:05:23.350Z,98478.81
2022-12-27T05:08:08.359Z,98363.75
2022-12-27T05:10:53.614Z,98201.88
2022-12-27T05:13:38.803Z,98296.41
2022-12-27T05:16:05.762Z,98340.50
2022-12-27T05:18:32.433Z,98284.38
2022-12-27T05:21:03.755Z,98357.78
2022-12-27T05:23:49.092Z,98403.66
2022-12-27T05:26:22.181Z,98378.06
2022-12-27T05:28:49.020Z,98391.19
2022-12-27T05:31:15.578Z,98442.28
2022-12-27T05:33:42.611Z,98438.06
2022-12-27T05:36:09.855Z,98419.53
2022-12-27T05:38:36.418Z,98299.13
2022-12-27T05:41:03.259Z,98385.69
2022-12-27T05:43:29.875Z,98525.59
2022-12-27T05:45:56.454Z,98321.22
2022-12-27T05:48:22.992Z,98296.94
2022-12-27T05:50:49.548Z,98291.16
2022-12-27T05:53:16.109Z,98450.19
2022-12-27T05:55:42.935Z,98441.72
2022-12-27T05:58:09.537Z,98318.59
2022-12-27T06:00:36.092Z,98491.41
2022-12-27T06:03:03.445Z,98314.38
2022-12-27T06:05:30.143Z,98431.53
2022-12-27T06:07:56.709Z,98432.50
2022-12-27T06:10:23.218Z,98396.28
2022-12-27T06:12:49.852Z,98503.44
2022-12-27T06:15:16.444Z,98476.25
2022-12-27T06:17:43.989Z,98307.75
2022-12-27T06:20:10.909Z,98535.56
2022-12-27T06:22:37.466Z,98331.72
2022-12-27T06:25:04.616Z,98478.22
2022-12-27T06:27:31.183Z,98370.50
2022-12-27T06:29:57.775Z,98364.59
2022-12-27T06:32:24.470Z,98241.00
2022-12-27T06:34:51.043Z,98328.28
2022-12-27T06:37:18.247Z,98526.47
2022-12-27T06:39:45.004Z,98425.69
2022-12-27T06:42:11.629Z,98498.25
2022-12-27T06:44:38.222Z,98515.53
2022-12-27T06:47:05.053Z,98515.47
2022-12-27T06:49:31.600Z,98353.00
2022-12-27T06:51:59.917Z,98546.94
2022-12-27T06:54:26.773Z,98318.28
2022-12-27T06:56:53.460Z,98486.31
2022-12-27T06:59:20.093Z,98488.06
2022-12-27T07:01:46.715Z,98499.31
2022-12-27T07:04:13.376Z,98356.91
2022-12-27T07:06:39.917Z,98457.56
2022-12-27T07:09:06.594Z,98539.78
2022-12-27T07:11:33.952Z,98413.44
2022-12-27T07:14:00.588Z,98502.53
2022-12-27T07:16:28.055Z,98292.53
2022-12-27T07:18:55.810Z,98349.75
2022-12-27T07:21:23.295Z,98300.41
2022-12-27T07:23:49.827Z,98423.22
2022-12-27T07:26:18.908Z,98575.41
2022-12-27T07:28:45.592Z,98349.00
2022-12-27T07:31:16.931Z,98513.91
2022-12-27T07:33:43.832Z,98602.19
2022-12-27T07:36:15.028Z,98518.94
2022-12-27T07:38:41.594Z,98399.50
2022-12-27T07:41:08.251Z,98511.09
2022-12-27T07:43:35.711Z,98426.03
2022-12-27T07:46:09.561Z,98416.41
2022-12-27T07:48:36.512Z,98596.28
2022-12-27T07:51:03.566Z,98525.88
2022-12-27T07:53:30.473Z,98414.25
2022-12-27T07:55:56.980Z,98402.28
2022-12-27T07:58:24.502Z,98486.75
2022-12-27T08:00:51.491Z,98474.25
2022-12-27T08:03:18.318Z,98578.50
2022-12-27T08:05:46.838Z,98601.41
2022-12-27T08:08:18.086Z,98451.47
2022-12-27T08:10:44.675Z,98406.53
2022-12-27T08:13:11.261Z,98452.09
2022-12-27T08:15:38.560Z,98535.44
2022-12-27T08:18:05.181Z,98536.41
2022-12-27T08:20:31.735Z,98615.72
2022-12-27T08:22:58.355Z,98483.16
2022-12-27T08:25:25.130Z,98509.19
2022-12-27T08:27:51.709Z,98473.81
2022-12-27T08:30:18.484Z,98517.75
2022-12-27T08:32:45.062Z,98619.75
2022-12-27T08:35:50.340Z,98621.94
2022-12-27T08:38:01.199Z,98440.47
2022-12-27T08:40:27.761Z,98540.13
2022-12-27T08:42:54.249Z,98561.28
2022-12-27T08:45:20.764Z,98648.47
2022-12-27T08:47:47.273Z,98505.66
2022-12-27T08:50:13.828Z,98527.03
2022-12-27T08:52:40.362Z,98543.31
2022-12-27T08:55:07.168Z,98555.06
2022-12-27T08:57:33.859Z,98536.47
2022-12-27T09:00:00.529Z,98560.84
2022-12-27T09:02:27.170Z,98648.38
2022-12-27T09:04:53.790Z,98510.66
2022-12-27T09:07:20.351Z,98553.56
2022-12-27T09:09:46.912Z,98499.13
2022-12-27T09:12:13.445Z,98514.66
2022-12-27T09:14:40.069Z,98581.88
2022-12-27T09:17:09.008Z,98602.19
2022-12-27T09:19:36.256Z,98547.97
2022-12-27T09:22:02.833Z,98550.53
2022-12-27T09:24:29.348Z,98634.81
2022-12-27T09:26:55.909Z,98566.81
2022-12-27T09:29:22.472Z,98568.31
2022-12-27T09:31:49.039Z,98559.72
2022-12-27T09:34:15.654Z,98576.69
2022-12-27T09:36:42.222Z,98567.88
2022-12-27T09:39:12.100Z,98549.13
2022-12-27T09:42:43.807Z,98665.16
2022-12-27T09:44:48.958Z,98669.53
2022-12-27T09:47:16.631Z,98589.84
2022-12-27T09:49:45.552Z,98567.88
2022-12-27T09:52:35.096Z,98512.34
2022-12-27T09:55:05.094Z,98652.50
2022-12-27T09:57:42.545Z,98391.38
2022-12-27T10:00:34.103Z,98506.00
2022-12-27T10:03:04.039Z,98643.16
2022-12-27T10:05:32.906Z,98522.13
2022-12-27T10:08:12.788Z,98643.16
2022-12-27T10:10:45.764Z,98570.16
2022-12-27T10:13:43.080Z,98648.34
2022-12-27T10:16:20.410Z,98533.44
2022-12-27T10:19:20.582Z,98644.09
2022-12-27T10:22:14.976Z,98609.03
2022-12-27T10:24:47.773Z,98581.91
2022-12-27T10:27:16.040Z,98565.13
2022-12-27T10:29:43.504Z,98639.81
2022-12-27T10:32:14.147Z,98572.69
2022-12-27T10:34:40.739Z,98575.66
2022-12-27T10:37:08.561Z,98650.25
2022-12-27T10:39:35.924Z,98543.16
2022-12-27T10:42:10.290Z,98648.59
2022-12-27T10:44:36.820Z,98424.78
2022-12-27T10:47:03.473Z,98652.00
2022-12-27T10:49:31.670Z,98618.59
2022-12-27T10:52:09.075Z,98584.44
2022-12-27T10:54:35.863Z,98412.25
2022-12-27T10:57:27.052Z,98573.50
2022-12-27T11:00:18.754Z,98659.81
2022-12-27T11:02:56.146Z,98568.56
2022-12-27T11:05:30.268Z,98595.78
2022-12-27T11:07:56.970Z,98510.34
2022-12-27T11:10:28.359Z,98563.31
2022-12-27T11:12:58.758Z,98479.59
2022-12-27T11:15:26.240Z,98449.75
2022-12-27T11:17:57.602Z,98525.41
2022-12-27T11:20:40.370Z,98625.09
2022-12-27T11:23:09.945Z,98631.84
2022-12-27T11:25:55.379Z,98624.19
2022-12-27T11:28:29.575Z,98616.53
2022-12-27T11:30:57.502Z,98566.78
2022-12-27T11:33:39.969Z,98606.34
2022-12-27T11:36:08.660Z,98464.41
2022-12-27T11:38:35.777Z,98566.16
2022-12-27T11:41:03.229Z,98589.44
2022-12-27T11:43:32.393Z,98555.88
2022-12-27T11:45:58.988Z,98248.31
2022-12-27T11:48:30.424Z,98294.72
2022-12-27T11:51:17.057Z,98470.06
2022-12-27T11:53:55.836Z,98590.34
2022-12-27T11:56:25.567Z,98592.88
2022-12-27T11:59:10.945Z,98593.75
2022-12-27T12:02:15.005Z,98588.63
2022-12-27T12:05:03.340Z,98586.09
2022-12-27T12:08:13.301Z,98424.66
2022-12-27T12:10:58.680Z,98586.97
2022-12-27T12:13:34.435Z,98580.13
2022-12-27T12:16:19.101Z,98580.97
2022-12-27T12:19:04.805Z,98586.97
2022-12-27T12:21:36.859Z,98584.41
2022-12-27T12:24:29.760Z,98581.88
2022-12-27T12:27:22.340Z,98583.53
2022-12-27T12:30:04.273Z,98587.88
2022-12-27T12:32:53.910Z,98443.03
2022-12-27T12:35:50.847Z,98346.84
2022-12-27T12:38:22.004Z,98389.69
2022-12-27T12:41:13.803Z,98459.97
2022-12-27T12:43:49.304Z,98584.41
2022-12-27T12:46:40.692Z,98582.75
2022-12-27T12:49:16.640Z,98587.88
2022-12-27T12:52:13.999Z,98574.22
2022-12-27T12:55:12.987Z,98571.66
2022-12-27T12:57:48.622Z,98574.22
2022-12-27T13:00:27.496Z,98510.03
2022-12-27T13:03:18.916Z,98572.56
2022-12-27T13:05:47.169Z,98564.91
2022-12-27T13:08:26.298Z,98570.78
2022-12-27T13:11:04.955Z,98382.06
2022-12-27T13:14:01.866Z,98575.97
2022-12-27T13:16:48.719Z,98496.44
2022-12-27T13:19:21.892Z,98450.34
2022-12-27T13:22:08.695Z,98566.63
2022-12-27T13:25:06.327Z,98554.78
2022-12-27T13:27:48.053Z,98553.06
2022-12-27T13:30:21.720Z,98548.78
2022-12-27T13:33:22.870Z,98525.03
2022-12-27T13:36:21.072Z,98550.53
2022-12-27T13:38:56.622Z,98461.13
2022-12-27T13:41:38.140Z,98514.59
2022-12-27T13:44:07.692Z,98548.78
2022-12-27T13:46:43.396Z,98548.78
2022-12-27T13:49:35.497Z,98550.44
2022-12-27T13:52:26.973Z,98548.78
2022-12-27T13:55:16.074Z,98517.94
2022-12-27T13:58:06.775Z,98553.81
2022-12-27T14:00:52.223Z,98407.47
2022-12-27T14:03:43.614Z,98554.63
2022-12-27T14:06:22.236Z,98552.91
2022-12-27T14:09:17.644Z,98426.25
2022-12-27T14:12:21.833Z,98555.38
2022-12-27T14:14:48.408Z,98470.38
2022-12-27T14:17:17.810Z,98567.38
2022-12-27T14:20:06.253Z,98228.38
2022-12-27T14:22:41.886Z,98565.69
2022-12-27T14:25:30.344Z,98575.03
2022-12-27T14:28:09.229Z,98572.47
2022-12-27T14:30:50.984Z,98574.13
2022-12-27T14:33:45.415Z,98577.56
2022-12-27T14:36:35.360Z,98349.78
2022-12-27T14:39:11.977Z,98598.00
2022-12-27T14:42:12.116Z,98336.25
2022-12-27T14:45:06.685Z,98577.47
2022-12-27T14:47:51.450Z,98586.88
2022-12-27T14:50:46.737Z,98580.91
2022-12-27T14:53:31.344Z,98580.97
2022-12-27T14:56:26.115Z,98586.00
2022-12-27T14:58:56.777Z,98556.91
2022-12-27T15:01:31.425Z,98440.66
2022-12-27T15:04:26.474Z,98560.81
2022-12-27T15:07:41.785Z,98583.44
2022-12-27T15:10:15.229Z,98578.34
2022-12-27T15:12:44.669Z,98585.22
2022-12-27T15:15:17.331Z,98578.34
2022-12-27T15:17:43.808Z,98569.84
2022-12-27T15:20:58.287Z,98575.03
2022-12-27T15:23:47.513Z,98539.78
2022-12-27T15:26:29.074Z,98576.69
2022-12-27T15:29:17.871Z,98344.22
2022-12-27T15:32:08.977Z,98580.91
2022-12-27T15:34:49.128Z,98516.09
2022-12-27T15:37:53.616Z,98572.41
2022-12-27T15:40:32.472Z,98573.25
2022-12-27T15:43:14.230Z,98567.28
2022-12-27T15:46:05.855Z,98345.88
2022-12-27T15:49:09.146Z,98567.28
2022-12-27T15:51:58.013Z,98479.38
2022-12-27T15:54:42.784Z,98565.59
2022-12-27T15:57:38.670Z,98461.38
2022-12-27T16:00:31.110Z,98226.72
2022-12-27T16:03:05.459Z,98371.53
2022-12-27T16:05:49.413Z,98536.97
2022-12-27T16:08:45.566Z,98526.88
2022-12-27T16:11:12.693Z,98570.53
2022-12-27T16:13:44.137Z,98498.66
2022-12-27T16:16:33.437Z,98510.69
2022-12-27T16:18:59.988Z,98574.69
2022-12-27T16:21:26.915Z,98452.94
2022-12-27T16:24:01.104Z,98398.59
2022-12-27T16:26:28.200Z,98570.38
2022-12-27T16:29:05.099Z,98510.53
2022-12-27T16:31:37.990Z,98463.75
2022-12-27T16:34:24.799Z,98562.72
2022-12-27T16:36:52.197Z,98420.59
2022-12-27T16:39:37.220Z,98559.25
2022-12-27T16:42:07.694Z,98500.25
2022-12-27T16:44:48.475Z,98554.91
2022-12-27T16:47:36.918Z,98558.34
2022-12-27T16:50:35.975Z,98554.06
2022-12-27T16:53:32.063Z,98512.97
2022-12-27T16:56:27.034Z,98505.91
2022-12-27T16:58:53.666Z,98323.19
2022-12-27T17:01:26.403Z,98545.50
2022-12-27T17:03:54.548Z,98551.50
2022-12-27T17:06:31.949Z,98544.63
2022-12-27T17:09:08.526Z,98538.69
2022-12-27T17:11:39.091Z,98426.34
2022-12-27T17:14:17.159Z,98542.88
2022-12-27T17:16:47.565Z,98540.34
2022-12-27T17:19:31.959Z,98407.13
2022-12-27T17:22:01.258Z,98506.22
2022-12-27T17:24:27.770Z,98307.19
2022-12-27T17:27:16.076Z,98534.34
2022-12-27T17:30:04.349Z,98536.97
2022-12-27T17:32:46.235Z,98536.97
2022-12-27T17:35:37.005Z,98403.91
2022-12-27T17:38:43.665Z,98473.16
2022-12-27T17:41:42.515Z,98535.22
2022-12-27T17:44:36.075Z,98542.00
2022-12-27T17:47:15.379Z,98257.50
2022-12-27T17:49:42.436Z,98346.53
2022-12-27T17:52:33.587Z,98444.50
2022-12-27T17:55:48.190Z,98534.28
2022-12-27T17:58:18.626Z,98416.97
2022-12-27T18:00:51.289Z,98530.06
2022-12-27T18:03:18.167Z,98447.44
2022-12-27T18:05:44.842Z,98309.13
2022-12-27T18:08:30.249Z,98270.72
2022-12-27T18:10:57.245Z,98405.06
2022-12-27T18:13:24.927Z,98489.19
2022-12-27T18:15:51.543Z,98501.69
2022-12-27T18:18:23.187Z,98522.41
2022-12-27T18:20:54.768Z,98158.22
2022-12-27T18:23:21.273Z,98392.81
2022-12-27T18:25:47.751Z,98514.75
2022-12-27T18:28:14.160Z,98511.31
2022-12-27T18:31:02.295Z,98404.47
2022-12-27T18:33:31.750Z,98502.00
2022-12-27T18:35:58.323Z,98388.94
2022-12-27T18:38:39.091Z,98467.91
2022-12-27T18:41:10.315Z,98445.66
2022-12-27T18:43:36.961Z,98405.41
2022-12-27T18:46:03.574Z,98355.31
2022-12-27T18:48:34.019Z,98393.94
2022-12-27T18:51:00.972Z,98463.38
2022-12-27T18:53:32.593Z,98217.03
2022-12-27T18:56:32.679Z,98506.22
2022-12-27T18:59:19.161Z,98449.19
2022-12-27T19:01:46.510Z,98406.13
2022-12-27T19:04:18.889Z,98504.47
2022-12-27T19:07:05.507Z,98293.88
2022-12-27T19:09:36.340Z,98405.72
2022-12-27T19:12:05.303Z,98345.44
2022-12-27T19:14:42.749Z,98341.47
2022-12-27T19:17:23.614Z,98313.91
2022-12-27T19:19:52.314Z,98238.03
2022-12-27T19:22:35.081Z,98434.50
2022-12-27T19:25:06.296Z,98338.34
2022-12-27T19:27:33.064Z,98278.84
2022-12-27T19:29:59.969Z,98458.56
2022-12-27T19:32:31.274Z,98353.25
2022-12-27T19:34:58.375Z,98287.53
2022-12-27T19:37:29.232Z,98387.03
2022-12-27T19:39:55.873Z,98376.75
2022-12-27T19:42:27.469Z,98341.72
2022-12-27T19:44:53.992Z,98323.41
2022-12-27T19:47:20.553Z,98362.97
2022-12-27T19:49:47.060Z,98428.53
2022-12-27T19:52:16.831Z,98320.13
2022-12-27T19:54:43.718Z,98334.94
2022-12-27T19:57:20.600Z,98467.88
2022-12-27T19:59:47.751Z,98156.31
2022-12-27T20:02:18.547Z,98101.16
2022-12-27T20:04:45.495Z,97648.78
2022-12-27T20:07:18.426Z,97934.88
2022-12-27T20:09:44.987Z,97894.44
2022-12-27T20:12:12.315Z,98272.31
2022-12-27T20:14:38.947Z,98402.47
2022-12-27T20:17:05.460Z,98410.38
2022-12-27T20:19:32.082Z,98416.81
2022-12-27T20:21:58.721Z,98304.00
2022-12-27T20:24:25.370Z,98403.69
2022-12-27T20:26:51.928Z,98271.50
2022-12-27T20:29:19.991Z,98125.75
2022-12-27T20:31:48.675Z,98214.81
2022-12-27T20:34:15.514Z,98306.69
2022-12-27T20:36:42.209Z,98357.41
2022-12-27T20:39:09.618Z,98175.63
2022-12-27T20:41:36.259Z,98320.53
2022-12-27T20:44:02.990Z,98370.66
2022-12-27T20:46:29.600Z,98200.78
2022-12-27T20:48:56.462Z,98324.13
2022-12-27T20:51:33.608Z,98235.00
2022-12-27T20:54:01.696Z,98143.59
2022-12-27T20:56:28.370Z,98197.84
2022-12-27T20:58:55.039Z,97887.56
2022-12-27T21:01:23.728Z,97895.53
2022-12-27T21:03:50.457Z,97799.69
2022-12-27T21:06:19.206Z,97684.28
2022-12-27T21:08:50.566Z,98276.66
2022-12-27T21:11:27.519Z,98383.09
2022-12-27T21:13:54.229Z,98237.13
2022-12-27T21:16:22.765Z,97892.81
2022-12-27T21:18:49.911Z,97686.34
2022-12-27T21:21:22.645Z,97242.06
2022-12-27T21:23:50.547Z,97979.34
2022-12-27T21:26:25.901Z,97368.19
2022-12-27T21:28:52.867Z,97942.47
2022-12-27T21:31:25.233Z,97802.72
2022-12-27T21:33:51.911Z,97477.88
2022-12-27T21:36:29.723Z,98200.19
2022-12-27T21:38:58.760Z,97480.75
2022-12-27T21:41:31.791Z,97645.34
2022-12-27T21:43:58.697Z,97790.06
2022-12-27T21:46:32.147Z,98407.03
2022-12-27T21:49:03.741Z,97290.91
2022-12-27T21:51:32.319Z,97767.31
2022-12-27T21:53:59.132Z,98207.69
2022-12-27T21:56:31.614Z,98253.44
2022-12-27T21:58:58.735Z,97362.25
2022-12-27T22:01:27.373Z,97845.16
2022-12-27T22:03:54.453Z,97998.63
2022-12-27T22:06:28.740Z,97904.66
2022-12-27T22:09:10.743Z,97993.13
2022-12-27T22:11:37.676Z,97785.34
2022-12-27T22:14:04.908Z,97767.66
2022-12-27T22:16:33.903Z,98097.88
2022-12-27T22:19:00.735Z,97577.47
2022-12-27T22:21:29.467Z,98008.03
2022-12-27T22:23:57.006Z,97235.56
2022-12-27T22:26:34.620Z,98185.34
2022-12-27T22:29:04.043Z,97695.81
2022-12-27T22:31:32.852Z,97358.53
2022-12-27T22:34:03.547Z,97651.53
2022-12-27T22:36:30.229Z,97362.84
2022-12-27T22:38:59.787Z,97940.41
2022-12-27T22:41:28.411Z,98053.22
2022-12-27T22:43:59.201Z,97954.53
2022-12-27T22:46:26.052Z,98193.84
2022-12-27T22:48:54.021Z,98383.94
2022-12-27T22:51:23.253Z,98183.66
2022-12-27T22:53:50.000Z,98360.06
2022-12-27T22:56:21.765Z,98128.19
2022-12-27T22:58:48.530Z,98221.13
2022-12-27T23:01:20.720Z,98175.19
2022-12-27T23:03:47.558Z,98291.50
2022-12-27T23:06:14.253Z,98329.09
2022-12-27T23:08:41.592Z,98292.34
2022-12-27T23:11:11.134Z,98240.31
2022-12-27T23:13:37.719Z,98275.31
2022-12-27T23:16:05.053Z,98155.13
2022-12-27T23:18:32.034Z,98175.19
2022-12-27T23:21:21.165Z,98292.25
2022-12-27T23:23:45.502Z,98320.09
2022-12-27T23:26:20.392Z,98081.88
2022-12-27T23:28:47.459Z,98267.75
2022-12-27T23:31:14.300Z,98184.22
2022-12-27T23:33:41.595Z,98283.03
2022-12-27T23:36:08.434Z,98278.81
2022-12-27T23:38:34.985Z,98149.09
2022-12-27T23:41:03.022Z,98264.78
2022-12-27T23:43:51.780Z,98231.91
2022-12-27T23:46:21.253Z,98109.72
2022-12-27T23:48:47.942Z,98245.75
2022-12-27T23:51:15.011Z,98101.22
2022-12-27T23:53:41.807Z,98251.47
2022-12-27T23:56:16.380Z,98194.75
2022-12-27T23:58:43.198Z,98096.19
